Time;durP1;ratioP1;P1;durP2;ratioP2;P2;SDS_P1;SDS_P2;PMS_P1;PMS_P2;Temp;Humidity;BMP_temperature;BMP_pressure;BME280_temperature;BME280_humidity;BME280_pressure;Samples;Min_cycle;Max_cycle;Signal;HPM_P1;HPM_P2
2021/11/27 00:02:11;;;;;;;10.07;9.18;;;;;;;0.23;75.77;97701.72;10427217;28;20077;-82
2021/11/27 00:07:13;;;;;;;10.48;8.95;;;;;;;0.09;76.18;97691.75;10410738;28;20051;-82
2021/11/27 00:12:15;;;;;;;11.18;8.77;;;;;;;0.08;76.52;97697.78;10404282;28;20041;-81
2021/11/27 00:17:24;;;;;;;10.70;9.55;;;;;;;0.22;76.45;97694.81;10425794;28;20050;-80
2021/11/27 00:22:27;;;;;;;10.10;9.20;;;;;;;0.12;76.63;97699.41;10408743;28;20053;-82
2021/11/27 00:27:29;;;;;;;11.70;10.48;;;;;;;0.21;75.93;97700.91;10388976;28;20141;-82
2021/11/27 00:32:31;;;;;;;12.07;10.98;;;;;;;0.13;76.64;97697.66;10405222;28;20057;-80
2021/11/27 00:37:33;;;;;;;11.40;10.30;;;;;;;-0.04;77.17;97691.25;10407479;28;20042;-82
2021/11/27 00:42:34;;;;;;;10.85;9.75;;;;;;;-0.14;77.15;97676.03;10423162;28;20057;-81
2021/11/27 00:47:39;;;;;;;15.88;14.18;;;;;;;-0.14;77.85;97681.19;10464255;28;20046;-82
2021/11/27 00:52:41;;;;;;;20.55;17.42;;;;;;;-0.10;78.70;97677.63;10455212;28;20021;-82
2021/11/27 00:57:43;;;;;;;25.95;19.98;;;;;;;-0.30;79.89;97673.00;10456071;28;20060;-82
2021/11/27 01:02:45;;;;;;;22.55;19.55;;;;;;;-0.26;80.29;97674.63;10439575;28;20042;-82
2021/11/27 01:07:54;;;;;;;30.70;21.30;;;;;;;-0.26;80.56;97677.22;10441434;28;20065;-80
2021/11/27 01:13:02;;;;;;;38.17;23.17;;;;;;;-0.14;80.60;97666.53;10457428;28;20053;-82
2021/11/27 01:18:04;;;;;;;28.88;20.73;;;;;;;-0.16;80.91;97670.06;10456469;28;20033;-82
2021/11/27 01:23:07;;;;;;;27.75;21.20;;;;;;;-0.19;80.50;97650.31;10456393;28;20025;-81
2021/11/27 01:28:09;;;;;;;20.02;17.15;;;;;;;-0.47;80.23;97650.22;10455049;28;20038;-81
2021/11/27 01:33:12;;;;;;;27.05;21.30;;;;;;;-0.45;80.73;97660.50;10455046;28;20085;-82
2021/11/27 01:38:15;;;;;;;34.65;22.52;;;;;;;-0.61;81.27;97652.31;10439226;28;20049;-82
2021/11/27 01:43:17;;;;;;;38.72;23.02;;;;;;;-0.55;82.04;97652.13;10455401;28;20042;-84
2021/11/27 01:48:22;;;;;;;31.98;22.55;;;;;;;-0.61;81.65;97642.00;10470946;28;20049;-80
2021/11/27 01:53:28;;;;;;;48.95;24.60;;;;;;;-0.60;82.18;97639.34;10454362;28;20140;-81
2021/11/27 01:58:31;;;;;;;36.00;22.30;;;;;;;-0.47;81.95;97639.03;10438146;28;20030;-81
2021/11/27 02:03:34;;;;;;;38.83;23.48;;;;;;;-0.62;81.95;97632.53;10455218;22;20111;-83
2021/11/27 02:08:59;;;;;;;34.90;23.05;;;;;;;-0.76;82.55;97632.88;10434876;28;20129;-83
2021/11/27 02:14:07;;;;;;;39.35;22.08;;;;;;;-0.81;82.34;97620.09;10418302;28;20064;-83
2021/11/27 02:19:18;;;;;;;42.35;23.98;;;;;;;-0.64;82.46;97611.09;10418457;28;20045;-84
2021/11/27 02:24:23;;;;;;;45.05;24.88;;;;;;;-0.58;82.23;97610.91;10416959;28;20049;-81
2021/11/27 02:29:31;;;;;;;41.85;24.88;;;;;;;-0.47;81.95;97613.25;10421800;28;20033;-82
2021/11/27 02:34:33;;;;;;;46.28;25.30;;;;;;;-0.54;81.84;97607.38;10433905;28;20050;-80
2021/11/27 02:39:36;;;;;;;45.83;26.45;;;;;;;-0.29;81.88;97595.53;10433290;28;20053;-82
2021/11/27 02:44:38;;;;;;;44.47;24.95;;;;;;;-0.47;82.42;97596.03;10434001;28;20057;-81
2021/11/27 02:49:41;;;;;;;43.95;26.55;;;;;;;-0.57;82.69;97590.25;10465511;28;20060;-82
2021/11/27 02:54:43;;;;;;;43.78;24.90;;;;;;;-0.47;81.23;97596.03;10450751;28;20032;-83
2021/11/27 02:59:46;;;;;;;36.80;23.38;;;;;;;-0.51;81.33;97599.56;10432406;28;20068;-82
2021/11/27 03:04:49;;;;;;;40.63;22.48;;;;;;;-0.58;81.94;97596.28;10449665;28;20041;-82
2021/11/27 03:09:51;;;;;;;29.88;22.63;;;;;;;-0.51;81.31;97595.25;10465477;28;20088;-82
2021/11/27 03:14:53;;;;;;;36.58;23.17;;;;;;;-0.59;81.43;97599.75;10450112;28;20033;-82
2021/11/27 03:19:55;;;;;;;37.20;22.25;;;;;;;-0.56;81.46;97597.09;10430955;28;20049;-82
2021/11/27 03:24:57;;;;;;;34.88;21.40;;;;;;;-0.27;80.35;97593.75;10447032;28;20097;-83
2021/11/27 03:29:59;;;;;;;32.72;21.95;;;;;;;-0.26;80.12;97595.44;10434405;28;20037;-82
2021/11/27 03:35:02;;;;;;;30.85;21.08;;;;;;;-0.56;80.90;97596.25;10450303;28;20038;-83
2021/11/27 03:40:14;;;;;;;30.60;20.90;;;;;;;-0.34;80.61;97599.13;10450781;28;20029;-82
2021/11/27 03:45:19;;;;;;;36.63;22.35;;;;;;;-0.77;81.66;97601.06;10450073;28;20046;-82
2021/11/27 03:50:22;;;;;;;29.35;20.98;;;;;;;-0.73;81.79;97604.44;10420588;28;20048;-84
2021/11/27 03:55:25;;;;;;;28.73;20.05;;;;;;;-0.58;81.09;97593.69;10429315;28;20132;-83
2021/11/27 04:00:27;;;;;;;35.42;20.48;;;;;;;-0.51;80.67;97584.94;10419599;28;20056;-84
2021/11/27 04:05:29;;;;;;;37.40;21.63;;;;;;;-0.43;80.45;97595.06;10416653;28;20045;-84
2021/11/27 04:10:32;;;;;;;22.98;19.27;;;;;;;-0.54;80.59;97597.06;10400207;28;20045;-84
2021/11/27 04:15:34;;;;;;;36.92;21.50;;;;;;;-0.87;81.62;97604.78;10413166;28;20050;-84
2021/11/27 04:20:36;;;;;;;35.33;22.77;;;;;;;-0.87;82.50;97609.09;10396753;28;20515;-84
2021/11/27 04:25:39;;;;;;;30.92;21.80;;;;;;;-0.80;81.98;97616.66;10418850;28;20072;-84
2021/11/27 04:30:42;;;;;;;38.08;21.58;;;;;;;-0.88;82.06;97610.00;10424853;28;20049;-84
2021/11/27 04:35:44;;;;;;;35.65;23.35;;;;;;;-0.78;82.75;97606.28;10429483;28;20046;-85
2021/11/27 04:40:52;;;;;;;35.67;22.90;;;;;;;-0.86;82.28;97608.22;10463452;28;20021;-81
2021/11/27 04:45:54;;;;;;;36.35;22.70;;;;;;;-0.51;82.06;97600.41;10445729;28;20097;-82
2021/11/27 04:50:57;;;;;;;40.42;23.48;;;;;;;-0.63;82.23;97605.88;10447600;28;20041;-83
2021/11/27 04:56:01;;;;;;;47.65;24.85;;;;;;;-0.80;82.32;97610.63;10430363;28;20038;-83
2021/11/27 05:01:04;;;;;;;38.88;24.83;;;;;;;-0.64;82.00;97611.09;10428931;28;20094;-83
2021/11/27 05:06:33;;;;;;;40.25;23.08;;;;;;;-0.67;81.84;97606.00;10457916;28;20041;-82
2021/11/27 05:11:38;;;;;;;43.83;25.50;;;;;;;-0.91;83.26;97613.47;10429166;28;20046;-83
2021/11/27 05:16:40;;;;;;;45.83;26.33;;;;;;;-0.61;82.91;97617.03;10444978;28;20463;-83
2021/11/27 05:21:42;;;;;;;42.05;25.13;;;;;;;-0.69;83.24;97597.47;10430656;28;20041;-83
2021/11/27 05:26:44;;;;;;;50.92;25.55;;;;;;;-0.96;83.37;97596.44;10440429;28;20042;-83
2021/11/27 05:37:36;;;;;;;51.10;26.45;;;;;;;-1.00;85.13;97577.59;10442328;28;20052;-83
2021/11/27 05:42:38;;;;;;;53.17;26.27;;;;;;;-0.79;83.57;97565.91;10422671;28;20060;-83
2021/11/27 05:47:40;;;;;;;41.83;24.13;;;;;;;-1.21;83.94;97570.41;10424822;28;20046;-85
2021/11/27 05:52:47;;;;;;;;;;;;;;;-1.37;85.09;97580.25;10407762;28;20372;-83
2021/11/27 05:57:50;;;;;;;49.08;27.65;;;;;;;-1.59;85.46;97603.91;10436047;28;20408;-83
2021/11/27 06:02:52;;;;;;;56.97;27.73;;;;;;;-1.71;86.56;97591.28;10437311;28;20041;-83
2021/11/27 06:07:54;;;;;;;51.42;26.75;;;;;;;-1.40;86.34;97593.19;10403758;28;20136;-84
2021/11/27 06:12:56;;;;;;;45.25;26.90;;;;;;;-1.40;86.10;97598.34;10422483;28;20049;-84
2021/11/27 06:18:01;;;;;;;47.08;26.83;;;;;;;-1.56;86.12;97618.44;10421307;28;20045;-83
2021/11/27 06:23:03;;;;;;;46.70;26.63;;;;;;;-1.55;86.84;97628.72;10419602;28;20049;-83
2021/11/27 06:28:05;;;;;;;47.35;26.33;;;;;;;-1.28;86.66;97629.84;10419389;28;20059;-86
2021/11/27 06:33:12;;;;;;;47.03;25.83;;;;;;;-1.27;85.38;97622.94;10418575;28;20052;-83
2021/11/27 06:38:14;;;;;;;48.75;27.05;;;;;;;-1.23;85.89;97634.03;10418976;28;20471;-83
2021/11/27 06:43:16;;;;;;;42.13;25.02;;;;;;;-0.80;83.85;97644.16;10417007;28;20084;-83
2021/11/27 06:48:31;;;;;;;41.65;24.70;;;;;;;-0.99;83.98;97633.44;10401526;28;20049;-82
2021/11/27 06:53:33;;;;;;;55.05;27.05;;;;;;;-0.83;83.73;97631.34;10418528;28;20045;-83
2021/11/27 06:58:35;;;;;;;43.58;26.60;;;;;;;-0.95;83.87;97629.06;10416426;28;20499;-83
2021/11/27 07:04:12;;;;;;;;;;;;;;;-1.03;84.68;97624.94;10421202;28;20061;-83
2021/11/27 07:09:20;;;;;;;46.03;27.00;;;;;;;-0.57;84.45;97628.13;10432723;28;20016;-83
2021/11/27 07:14:40;;;;;;;39.53;26.00;;;;;;;-0.77;84.70;97634.63;10400922;28;20052;-82
2021/11/27 07:19:42;;;;;;;40.05;25.77;;;;;;;-0.76;84.78;97635.47;10415461;28;20101;-82
2021/11/27 07:24:44;;;;;;;42.75;26.15;;;;;;;-0.59;85.05;97645.34;10432096;28;20076;-82
2021/11/27 07:29:52;;;;;;;44.05;25.63;;;;;;;-0.21;82.92;97651.28;10434309;28;20033;-81
2021/11/27 07:34:56;;;;;;;46.95;27.20;;;;;;;-0.14;82.33;97652.78;10432080;28;20403;-81
2021/11/27 07:39:57;;;;;;;34.10;25.02;;;;;;;0.01;81.65;97657.53;10413200;28;20038;-81
2021/11/27 07:44:59;;;;;;;31.92;24.05;;;;;;;0.29;79.45;97657.59;10431224;28;20042;-81
2021/11/27 07:50:19;;;;;;;36.03;23.73;;;;;;;0.25;80.53;97658.59;10433203;28;20045;-81
2021/11/27 07:55:49;;;;;;;39.35;24.38;;;;;;;0.45;78.69;97652.84;10401362;28;20099;-83
2021/11/27 08:00:51;;;;;;;35.05;25.05;;;;;;;0.31;80.21;97648.09;10437637;28;20065;-84
2021/11/27 08:05:53;;;;;;;31.60;23.70;;;;;;;0.40;79.60;97632.31;10434696;22;20049;-72
2021/11/27 08:10:57;;;;;;;34.42;24.88;;;;;;;0.55;78.25;97630.16;10418619;28;20038;-72
2021/11/27 08:16:00;;;;;;;37.40;24.83;;;;;;;0.71;77.61;97634.81;10400482;28;20052;-72
2021/11/27 08:21:03;;;;;;;36.00;23.23;;;;;;;0.78;77.09;97622.53;10400790;28;20513;-72
2021/11/27 08:26:22;;;;;;;35.65;22.60;;;;;;;0.42;78.79;97630.53;10401314;28;20491;-73
2021/11/27 08:31:24;;;;;;;32.85;23.95;;;;;;;0.28;79.43;97630.09;10418421;28;20042;-71
2021/11/27 08:36:26;;;;;;;33.25;22.00;;;;;;;0.40;79.26;97640.06;10418706;28;20037;-72
2021/11/27 08:41:28;;;;;;;29.73;22.02;;;;;;;0.26;80.21;97624.09;10399986;28;20084;-71
2021/11/27 08:46:30;;;;;;;25.60;21.38;;;;;;;0.68;78.06;97637.50;10401152;28;20463;-72
2021/11/27 08:51:31;;;;;;;26.05;20.23;;;;;;;0.89;77.79;97640.31;10401910;28;20117;-71
2021/11/27 08:56:34;;;;;;;26.10;20.95;;;;;;;1.19;76.10;97641.91;10382739;28;20113;-71
2021/11/27 09:01:36;;;;;;;21.95;19.42;;;;;;;1.18;76.28;97654.91;10399541;28;20049;-72
2021/11/27 09:06:38;;;;;;;20.25;18.25;;;;;;;1.20;76.91;97650.53;10418243;28;20033;-72
2021/11/27 09:11:41;;;;;;;23.98;18.20;;;;;;;1.50;75.88;97652.09;10403724;28;20088;-72
2021/11/27 09:16:44;;;;;;;21.17;19.10;;;;;;;1.65;75.39;97649.91;10406730;28;20505;-72
2021/11/27 09:21:46;;;;;;;20.52;18.42;;;;;;;1.83;75.13;97649.28;10424967;28;20076;-72
2021/11/27 09:26:48;;;;;;;22.73;20.42;;;;;;;2.01;74.66;97651.22;10407265;28;20454;-72
2021/11/27 09:31:50;;;;;;;22.35;19.05;;;;;;;2.31;72.90;97653.59;10404868;28;20053;-72
2021/11/27 09:36:52;;;;;;;23.05;19.52;;;;;;;2.24;74.45;97658.16;10406716;28;20046;-71
2021/11/27 09:41:57;;;;;;;20.80;18.90;;;;;;;2.63;71.78;97654.16;10425743;28;20041;-72
2021/11/27 09:47:03;;;;;;;19.85;17.90;;;;;;;2.66;71.72;97657.47;10406266;28;20045;-73
2021/11/27 09:52:07;;;;;;;20.80;17.70;;;;;;;2.72;72.08;97648.63;10424577;28;20077;-72
2021/11/27 09:57:10;;;;;;;20.02;17.98;;;;;;;2.79;72.54;97637.13;10424160;28;20037;-72
2021/11/27 10:02:14;;;;;;;18.65;16.92;;;;;;;2.96;71.96;97634.66;10405574;28;20079;-72
2021/11/27 10:07:18;;;;;;;18.50;16.70;;;;;;;3.07;71.26;97638.63;10406180;28;20058;-73
2021/11/27 10:12:22;;;;;;;26.13;18.17;;;;;;;3.07;71.15;97639.44;10421846;28;20518;-72
2021/11/27 10:17:30;;;;;;;20.42;18.23;;;;;;;3.34;69.61;97640.09;10423443;28;20124;-72
2021/11/27 10:22:38;;;;;;;21.00;18.92;;;;;;;3.40;69.39;97655.41;10422603;28;20107;-71
2021/11/27 10:27:40;;;;;;;29.25;21.02;;;;;;;3.67;68.98;97662.97;10389442;28;20045;-72
2021/11/27 10:32:44;;;;;;;22.88;17.13;;;;;;;3.81;67.69;97660.66;10421013;28;20515;-72
2021/11/27 10:37:53;;;;;;;19.98;17.52;;;;;;;3.86;67.16;97652.66;10422715;28;20103;-72
2021/11/27 10:43:04;;;;;;;20.73;17.77;;;;;;;3.83;67.54;97657.97;10403824;28;20045;-72
2021/11/27 10:48:12;;;;;;;19.73;18.00;;;;;;;3.48;68.61;97663.72;10421823;28;20042;-72
2021/11/27 10:53:19;;;;;;;18.88;17.17;;;;;;;3.82;68.27;97671.88;10389467;28;20092;-72
2021/11/27 10:58:21;;;;;;;22.00;17.65;;;;;;;3.79;68.44;97678.88;10422433;28;20042;-73
2021/11/27 11:03:35;;;;;;;19.10;17.23;;;;;;;3.70;69.13;97686.22;10422524;28;20092;-73
2021/11/27 11:08:40;;;;;;;19.08;16.23;;;;;;;3.89;67.61;97687.13;10404035;28;20045;-72
2021/11/27 11:13:42;;;;;;;17.38;15.77;;;;;;;4.02;67.48;97679.66;10403311;28;20049;-72
2021/11/27 11:18:45;;;;;;;13.20;11.95;;;;;;;4.15;64.26;97680.81;10402949;28;20513;-72
2021/11/27 11:23:49;;;;;;;12.93;11.65;;;;;;;4.15;63.45;97679.97;10386412;28;20053;-72
2021/11/27 11:29:11;;;;;;;14.52;13.02;;;;;;;3.95;64.88;97684.28;10419997;28;20041;-73
2021/11/27 11:34:13;;;;;;;14.48;13.27;;;;;;;3.93;65.15;97677.47;10402219;28;20122;-72
2021/11/27 11:39:29;;;;;;;16.98;12.95;;;;;;;3.97;64.94;97674.66;10420446;28;20045;-72
2021/11/27 11:44:31;;;;;;;13.18;11.63;;;;;;;3.76;65.02;97673.84;10419871;28;20129;-71
2021/11/27 11:49:35;;;;;;;13.10;11.90;;;;;;;3.90;65.28;97673.25;10401206;28;20038;-73
2021/11/27 11:54:37;;;;;;;12.70;11.32;;;;;;;3.99;64.77;97674.63;10419302;28;20457;-71
2021/11/27 11:59:40;;;;;;;14.77;13.13;;;;;;;3.85;65.27;97677.81;10419929;28;20038;-72
2021/11/27 12:04:57;;;;;;;14.00;12.57;;;;;;;3.88;65.14;97662.06;10401358;28;20458;-72
2021/11/27 12:10:12;;;;;;;15.45;13.93;;;;;;;4.07;65.03;97658.66;10401091;28;20050;-71
2021/11/27 12:15:28;;;;;;;14.50;13.00;;;;;;;3.96;64.79;97667.78;10401375;28;20045;-72
2021/11/27 12:20:43;;;;;;;12.43;11.32;;;;;;;4.05;64.40;97669.97;10403029;28;20486;-73
2021/11/27 12:26:09;;;;;;;13.48;12.18;;;;;;;4.17;64.00;97672.97;10385882;28;20511;-72
2021/11/27 12:31:12;;;;;;;15.05;13.45;;;;;;;3.92;64.60;97673.19;10400720;28;20041;-74
2021/11/27 12:36:26;;;;;;;17.65;14.55;;;;;;;3.97;64.89;97674.66;10404138;28;20144;-73
2021/11/27 12:41:31;;;;;;;16.50;15.00;;;;;;;3.96;64.62;97666.94;10400482;28;20466;-74
2021/11/27 12:46:33;;;;;;;20.48;17.58;;;;;;;3.82;64.68;97666.69;10404666;28;20140;-73
2021/11/27 12:51:35;;;;;;;19.27;17.38;;;;;;;3.50;65.82;97664.53;10423491;28;20037;-72
2021/11/27 12:56:47;;;;;;;18.33;16.58;;;;;;;3.78;65.45;97655.56;10424931;28;20410;-71
2021/11/27 13:01:52;;;;;;;18.67;16.48;;;;;;;3.79;65.19;97636.47;10407435;28;20080;-71
2021/11/27 13:06:54;;;;;;;20.92;17.05;;;;;;;3.80;65.14;97635.56;10425055;28;20045;-73
2021/11/27 13:11:58;;;;;;;21.45;16.08;;;;;;;3.68;65.33;97642.13;10424701;28;20037;-72
2021/11/27 13:17:05;;;;;;;17.30;15.40;;;;;;;3.80;65.43;97641.59;10424572;28;20046;-74
2021/11/27 13:22:09;;;;;;;18.92;16.23;;;;;;;3.89;64.88;97657.72;10423585;28;20088;-74
2021/11/27 13:27:19;;;;;;;15.93;14.45;;;;;;;3.78;65.62;97652.97;10415701;28;20095;-73
2021/11/27 13:32:21;;;;;;;15.77;14.38;;;;;;;3.72;65.95;97650.66;10448416;28;20051;-73
2021/11/27 13:37:23;;;;;;;16.92;15.43;;;;;;;3.87;65.83;97655.19;10448910;28;20037;-73
2021/11/27 13:42:29;;;;;;;15.60;14.10;;;;;;;3.85;65.79;97671.75;10447229;28;20051;-73
2021/11/27 13:47:34;;;;;;;16.05;14.55;;;;;;;3.57;66.92;97677.25;10446971;28;20040;-73
2021/11/27 13:52:47;;;;;;;23.65;14.75;;;;;;;3.56;67.62;97676.41;10446777;28;20075;-73
2021/11/27 13:57:52;;;;;;;16.23;14.65;;;;;;;3.84;67.25;97672.66;10463621;28;20502;-72
2021/11/27 14:02:58;;;;;;;15.35;13.70;;;;;;;4.08;66.21;97683.78;10447863;22;20140;-69
2021/11/27 14:08:14;;;;;;;17.38;14.10;;;;;;;4.42;65.41;97698.72;10420801;28;20042;-68
2021/11/27 14:13:16;;;;;;;13.97;12.57;;;;;;;4.43;65.27;97698.69;10420753;28;20046;-68
2021/11/27 14:18:25;;;;;;;10.63;9.50;;;;;;;4.44;64.71;97702.13;10421343;28;20276;-69
2021/11/27 14:23:37;;;;;;;7.95;7.15;;;;;;;4.48;64.13;97709.72;10420242;28;20053;-69
2021/11/27 14:28:42;;;;;;;6.43;5.82;;;;;;;4.50;62.79;97720.88;10420566;28;20042;-69
2021/11/27 14:33:57;;;;;;;7.53;6.82;;;;;;;4.20;64.59;97730.88;10421096;28;20034;-68
2021/11/27 14:39:15;;;;;;;7.07;6.47;;;;;;;4.30;64.51;97742.59;10419918;28;20038;-68
2021/11/27 14:44:17;;;;;;;6.47;5.88;;;;;;;4.38;64.01;97742.22;10420160;28;20045;-68
2021/11/27 14:49:39;;;;;;;6.68;6.07;;;;;;;4.41;63.65;97749.91;10400918;28;20042;-69
2021/11/27 14:54:43;;;;;;;6.75;6.07;;;;;;;4.47;63.56;97746.19;10400704;28;20045;-69
2021/11/27 14:59:44;;;;;;;6.60;6.07;;;;;;;4.36;64.67;97754.47;10419197;28;20116;-69
2021/11/27 15:04:46;;;;;;;6.13;5.63;;;;;;;4.50;64.01;97756.47;10401437;28;20192;-69
2021/11/27 15:09:49;;;;;;;6.60;6.00;;;;;;;4.29;64.94;97759.09;10418451;28;20048;-68
2021/11/27 15:14:51;;;;;;;6.97;6.38;;;;;;;4.41;64.63;97762.06;10401250;28;20103;-68
2021/11/27 15:19:53;;;;;;;10.48;9.57;;;;;;;4.27;65.15;97765.28;10418501;28;20068;-69
2021/11/27 15:24:55;;;;;;;8.93;8.13;;;;;;;4.05;66.18;97768.78;10417799;28;20580;-68
2021/11/27 15:29:58;;;;;;;10.63;9.70;;;;;;;3.88;66.71;97760.81;10418902;28;20037;-68
2021/11/27 15:35:00;;;;;;;11.52;10.52;;;;;;;3.78;67.52;97780.31;10417519;28;20092;-70
2021/11/27 15:40:02;;;;;;;10.52;9.63;;;;;;;3.73;68.16;97793.47;10417215;28;20041;-68
2021/11/27 15:45:05;;;;;;;11.35;10.35;;;;;;;3.82;67.72;97787.06;10418296;28;20081;-69
2021/11/27 15:50:07;;;;;;;11.13;10.13;;;;;;;3.71;68.32;97795.28;10418333;28;20071;-69
2021/11/27 15:55:09;;;;;;;9.90;8.93;;;;;;;3.92;68.11;97803.97;10417949;28;20451;-68
2021/11/27 16:00:29;;;;;;;8.32;7.63;;;;;;;3.98;67.16;97806.31;10415437;28;20531;-68
2021/11/27 16:05:32;;;;;;;10.43;9.50;;;;;;;3.70;68.16;97808.34;10407601;28;20045;-70
2021/11/27 16:10:33;;;;;;;9.30;8.48;;;;;;;3.44;69.28;97815.41;10414658;28;20049;-68
2021/11/27 16:15:35;;;;;;;18.83;17.15;;;;;;;3.36;70.08;97820.03;10416629;28;20125;-68
2021/11/27 16:20:40;;;;;;;32.13;26.83;;;;;;;3.28;70.23;97832.47;10415494;28;20049;-69
2021/11/27 16:25:42;;;;;;;25.23;22.50;;;;;;;3.17;70.76;97835.47;10415691;28;20053;-69
2021/11/27 16:30:44;;;;;;;34.80;26.58;;;;;;;3.11;71.17;97842.66;10416126;28;20096;-69
2021/11/27 16:35:46;;;;;;;17.67;15.77;;;;;;;3.09;71.53;97840.09;10413747;28;20063;-69
2021/11/27 16:40:48;;;;;;;15.95;14.43;;;;;;;3.20;71.17;97835.34;10415473;28;20115;-69
2021/11/27 16:45:50;;;;;;;10.32;9.43;;;;;;;3.42;70.25;97838.00;10415664;28;20072;-69
2021/11/27 16:50:52;;;;;;;12.15;10.95;;;;;;;3.37;70.29;97839.94;10414825;28;20395;-69
2021/11/27 16:55:55;;;;;;;13.18;11.98;;;;;;;3.12;71.14;97846.94;10399354;28;20072;-70
2021/11/27 17:00:56;;;;;;;13.23;12.02;;;;;;;3.07;71.83;97854.03;10382405;28;20059;-69
2021/11/27 17:05:59;;;;;;;11.75;10.75;;;;;;;3.17;71.40;97855.38;10400210;28;20454;-71
2021/11/27 17:11:06;;;;;;;11.70;10.60;;;;;;;3.03;71.80;97863.69;10416268;28;20128;-69
2021/11/27 17:16:08;;;;;;;18.27;16.40;;;;;;;2.92;71.86;97853.69;10416735;28;20048;-70
2021/11/27 17:21:11;;;;;;;13.48;12.38;;;;;;;2.70;72.32;97838.03;10415710;28;20029;-69
2021/11/27 17:26:13;;;;;;;11.57;10.55;;;;;;;2.50;73.61;97824.91;10415892;28;20079;-70
2021/11/27 17:31:15;;;;;;;11.88;10.85;;;;;;;2.39;73.81;97824.41;10399312;28;20522;-70
2021/11/27 17:36:19;;;;;;;12.27;11.07;;;;;;;2.65;73.35;97846.88;10423375;28;20499;-68
2021/11/27 17:41:21;;;;;;;11.25;10.25;;;;;;;2.19;74.50;97885.56;10390753;28;20107;-70
2021/11/27 17:46:22;;;;;;;14.57;13.20;;;;;;;2.03;75.06;97874.84;10405631;28;20052;-70
2021/11/27 17:51:24;;;;;;;13.70;12.50;;;;;;;1.94;75.72;97876.88;10422363;28;20462;-70
2021/11/27 17:56:26;;;;;;;16.55;14.95;;;;;;;1.99;76.15;97867.22;10422111;28;20042;-69
2021/11/27 18:01:28;;;;;;;17.45;15.75;;;;;;;2.03;76.03;97889.53;10422758;28;20406;-71
2021/11/27 18:06:36;;;;;;;19.75;17.45;;;;;;;2.18;75.98;97898.59;10404133;28;20132;-70
2021/11/27 18:11:39;;;;;;;18.23;16.70;;;;;;;2.16;76.08;97908.13;10379476;28;20046;-71
2021/11/27 18:16:41;;;;;;;19.88;17.83;;;;;;;2.10;75.95;97906.59;10364145;28;20072;-70
2021/11/27 18:21:46;;;;;;;19.88;17.98;;;;;;;1.94;76.97;97888.09;10394621;28;20041;-70
2021/11/27 18:32:03;;;;;;;23.30;21.02;;;;;;;1.87;77.79;97909.91;10462628;28;20041;-70
2021/11/27 18:37:06;;;;;;;22.20;20.13;;;;;;;1.85;77.57;97909.09;10428371;28;20053;-70
2021/11/27 18:42:09;;;;;;;34.20;24.63;;;;;;;1.79;78.11;97911.88;10446064;28;20124;-70
2021/11/27 18:47:12;;;;;;;29.10;22.65;;;;;;;1.88;77.82;97898.66;10462108;28;20469;-69
2021/11/27 18:52:15;;;;;;;42.83;28.67;;;;;;;2.14;76.95;97899.59;10461290;28;20048;-70
2021/11/27 18:57:16;;;;;;;25.02;20.58;;;;;;;2.21;75.61;97907.13;10461726;28;20084;-70
2021/11/27 19:02:19;;;;;;;22.40;20.27;;;;;;;1.70;77.48;97914.75;10460745;28;20387;-69
2021/11/27 19:07:21;;;;;;;21.67;19.38;;;;;;;1.83;77.54;97923.00;10460741;28;20072;-70
2021/11/27 19:12:25;;;;;;;22.15;20.13;;;;;;;1.74;77.46;97929.31;10461358;28;20129;-70
2021/11/27 19:17:26;;;;;;;23.05;20.85;;;;;;;1.42;79.04;97944.06;10427440;28;20140;-71
2021/11/27 19:22:37;;;;;;;;;;;;;;;1.70;78.26;97938.06;10445623;28;20568;-70
2021/11/27 19:27:40;;;;;;;23.05;20.02;;;;;;;1.67;78.62;97936.41;10460387;28;19990;-69
2021/11/27 19:32:42;;;;;;;26.17;23.38;;;;;;;1.77;78.54;97939.56;10442661;28;20044;-70
2021/11/27 19:37:44;;;;;;;25.38;22.70;;;;;;;1.48;79.12;97938.69;10460418;28;20040;-69
2021/11/27 19:42:47;;;;;;;29.40;24.17;;;;;;;1.36;79.85;97935.59;10444842;28;20124;-70
2021/11/27 19:47:49;;;;;;;29.35;24.73;;;;;;;1.42;80.28;97933.69;10420031;28;20045;-70
2021/11/27 19:52:52;;;;;;;30.38;24.08;;;;;;;1.40;80.69;97930.28;10420103;28;20068;-70
2021/11/27 19:57:54;;;;;;;26.75;23.92;;;;;;;1.47;80.43;97936.16;10400989;28;20129;-69
2021/11/27 20:02:56;;;;;;;27.50;23.05;;;;;;;1.38;80.58;97941.59;10416937;23;20037;-77
2021/11/27 20:08:00;;;;;;;24.40;21.83;;;;;;;1.33;81.03;97949.50;10446180;28;20494;-78
2021/11/27 20:13:02;;;;;;;25.35;22.10;;;;;;;1.36;80.92;97971.84;10444217;28;20565;-76
2021/11/27 20:18:09;;;;;;;33.65;21.90;;;;;;;1.30;81.09;97970.28;10462160;28;20067;-78
2021/11/27 20:23:15;;;;;;;21.35;19.05;;;;;;;1.33;81.08;97969.31;10428173;28;20049;-77
2021/11/27 20:28:17;;;;;;;21.50;19.38;;;;;;;1.42;81.49;97963.91;10446827;28;20466;-78
2021/11/27 20:33:19;;;;;;;20.58;18.35;;;;;;;1.45;81.34;97975.00;10446141;28;20072;-77
2021/11/27 20:38:23;;;;;;;21.23;19.27;;;;;;;1.72;81.10;97975.13;10428114;28;20089;-77
2021/11/27 20:43:26;;;;;;;20.08;17.88;;;;;;;1.58;81.74;97964.31;10442711;28;20140;-77
2021/11/27 20:48:28;;;;;;;26.63;23.23;;;;;;;1.54;81.38;97968.72;10461040;28;20041;-77
2021/11/27 20:53:31;;;;;;;30.90;26.35;;;;;;;1.46;81.42;97975.84;10459258;28;20037;-77
2021/11/27 20:58:33;;;;;;;30.90;26.33;;;;;;;1.46;81.69;97975.84;10459743;28;20063;-76
2021/11/27 21:03:40;;;;;;;29.55;25.25;;;;;;;1.69;81.71;97988.19;10459982;28;20136;-76
2021/11/27 21:08:43;;;;;;;27.10;23.80;;;;;;;1.77;80.98;97981.88;10464611;28;20405;-77
2021/11/27 21:13:47;;;;;;;25.98;22.67;;;;;;;1.96;80.92;97997.72;10466628;28;20418;-76
2021/11/27 21:18:48;;;;;;;27.48;22.58;;;;;;;1.73;81.64;97997.56;10466982;28;20102;-77
2021/11/27 21:23:50;;;;;;;26.27;23.55;;;;;;;1.76;81.85;97989.69;10449623;28;20536;-76
2021/11/27 21:28:52;;;;;;;24.90;22.35;;;;;;;1.74;81.92;97987.16;10468208;28;20041;-77
2021/11/27 21:34:00;;;;;;;23.58;20.90;;;;;;;1.90;81.91;97994.44;10466840;28;20048;-77
2021/11/27 21:39:02;;;;;;;27.83;22.60;;;;;;;1.87;82.10;97991.97;10466016;28;20052;-77
2021/11/27 21:44:04;;;;;;;24.13;21.85;;;;;;;1.71;82.55;97996.75;10467919;28;20392;-76
2021/11/27 21:49:06;;;;;;;28.65;23.80;;;;;;;1.62;83.48;97984.91;10466901;28;20044;-77
2021/11/27 21:54:08;;;;;;;26.65;23.15;;;;;;;1.64;83.60;97990.03;10433082;28;20052;-76
2021/11/27 21:59:11;;;;;;;25.00;22.40;;;;;;;1.73;83.42;97989.78;10468325;28;20056;-77
2021/11/27 22:04:13;;;;;;;32.08;25.00;;;;;;;2.02;82.43;97987.16;10466376;28;20072;-77
2021/11/27 22:09:15;;;;;;;26.88;24.23;;;;;;;1.96;81.89;97984.78;10470086;28;20474;-77
2021/11/27 22:14:17;;;;;;;27.30;24.50;;;;;;;1.90;82.48;97992.72;10467124;28;20061;-77
2021/11/27 22:19:19;;;;;;;29.00;25.10;;;;;;;1.96;82.48;98000.31;10469984;28;20083;-76
2021/11/27 22:24:21;;;;;;;64.93;37.92;;;;;;;2.44;80.97;98004.91;10468741;28;20041;-77
2021/11/27 22:29:23;;;;;;;48.33;32.63;;;;;;;2.53;79.58;98007.19;10466778;28;20041;-77
2021/11/27 22:34:28;;;;;;;28.92;26.05;;;;;;;2.35;81.44;98051.88;10465593;28;20063;-76
2021/11/27 22:39:32;;;;;;;22.45;20.50;;;;;;;2.38;80.26;98056.09;10464190;28;20043;-77
2021/11/27 22:44:33;;;;;;;19.77;18.15;;;;;;;2.35;81.69;98054.44;10464664;28;20068;-77
2021/11/27 22:49:35;;;;;;;11.38;10.38;;;;;;;2.70;81.56;98061.16;10446618;28;20120;-77
2021/11/27 22:54:38;;;;;;;9.32;8.63;;;;;;;2.65;83.32;98072.53;10463688;28;20041;-77
2021/11/27 22:59:40;;;;;;;7.82;7.22;;;;;;;2.49;84.68;98067.84;10462852;28;20048;-74
2021/11/27 23:04:42;;;;;;;5.57;5.18;;;;;;;2.22;86.11;98079.91;10445252;28;20422;-74
2021/11/27 23:09:44;;;;;;;5.47;4.97;;;;;;;2.19;86.48;98092.09;10443245;28;20067;-74
2021/11/27 23:14:47;;;;;;;5.25;4.85;;;;;;;1.98;87.86;98093.53;10461401;28;20056;-74
2021/11/27 23:20:18;;;;;;;4.38;4.03;;;;;;;1.99;87.24;98087.47;10460631;28;20048;-74
2021/11/27 23:25:21;;;;;;;4.03;3.72;;;;;;;1.95;87.35;98097.09;10461053;28;20041;-73
2021/11/27 23:30:22;;;;;;;2.97;2.78;;;;;;;1.97;87.34;98090.09;10461054;28;20045;-74